createdAt,value
2022-08-24T00:00:36.301Z,2.97
2022-08-24T00:03:03.752Z,2.97
2022-08-24T00:05:31.256Z,3.08
2022-08-24T00:07:58.626Z,3.50
2022-08-24T00:10:26.736Z,3.33
2022-08-24T00:12:54.271Z,3.10
2022-08-24T00:15:21.596Z,3.55
2022-08-24T00:17:48.952Z,3.10
2022-08-24T00:20:16.341Z,3.38
2022-08-24T00:22:44.141Z,3.47
2022-08-24T00:25:12.685Z,3.55
2022-08-24T00:27:40.366Z,3.67
2022-08-24T00:30:08.942Z,3.35
2022-08-24T00:32:37.914Z,3.58
2022-08-24T00:35:07.498Z,3.20
2022-08-24T00:37:35.092Z,3.92
2022-08-24T00:40:02.650Z,3.60
2022-08-24T00:42:30.065Z,3.50
2022-08-24T00:44:57.410Z,3.50
2022-08-24T00:47:26.601Z,4.10
2022-08-24T00:50:01.763Z,3.25
2022-08-24T00:52:32.013Z,3.22
2022-08-24T00:55:01.970Z,3.78
2022-08-24T00:57:31.267Z,3.75
2022-08-24T01:00:01.210Z,3.60
2022-08-24T01:02:32.938Z,3.28
2022-08-24T01:05:01.993Z,3.70
2022-08-24T01:07:30.566Z,3.50
2022-08-24T01:09:59.811Z,3.58
2022-08-24T01:12:28.811Z,3.88
2022-08-24T01:14:57.724Z,3.60
2022-08-24T01:17:44.297Z,3.47
2022-08-24T01:20:12.733Z,4.00
2022-08-24T01:22:55.369Z,4.15
2022-08-24T01:25:23.613Z,3.35
2022-08-24T01:27:51.156Z,3.83
2022-08-24T01:30:20.597Z,3.90
2022-08-24T01:32:57.653Z,3.58
2022-08-24T01:35:25.141Z,3.97
2022-08-24T01:37:53.162Z,3.67
2022-08-24T01:40:21.046Z,3.72
2022-08-24T01:42:50.101Z,4.07
2022-08-24T01:45:17.835Z,3.42
2022-08-24T01:47:45.571Z,4.30
2022-08-24T01:50:13.539Z,3.83
2022-08-24T01:53:03.964Z,3.42
2022-08-24T01:55:29.587Z,3.75
2022-08-24T01:57:57.329Z,3.60
2022-08-24T02:00:24.706Z,3.75
2022-08-24T02:02:52.448Z,3.50
2022-08-24T02:05:20.073Z,4.00
2022-08-24T02:07:47.934Z,3.88
2022-08-24T02:10:15.972Z,3.28
2022-08-24T02:12:44.747Z,3.47
2022-08-24T02:15:12.220Z,3.60
2022-08-24T02:17:41.107Z,3.50
2022-08-24T02:20:08.710Z,4.18
2022-08-24T02:22:36.267Z,3.50
2022-08-24T02:25:03.722Z,3.92
2022-08-24T02:27:34.171Z,4.07
2022-08-24T02:30:01.561Z,3.65
2022-08-24T02:32:28.992Z,3.67
2022-08-24T02:34:56.318Z,3.50
2022-08-24T02:37:23.830Z,4.00
2022-08-24T02:39:52.558Z,3.83
2022-08-24T02:42:20.316Z,3.65
2022-08-24T02:44:48.255Z,3.65
2022-08-24T02:47:17.923Z,3.80
2022-08-24T02:49:45.679Z,3.40
2022-08-24T02:52:13.032Z,3.42
2022-08-24T02:54:40.554Z,3.75
2022-08-24T02:57:07.842Z,3.90
2022-08-24T02:59:35.531Z,3.60
2022-08-24T03:02:03.268Z,3.85
2022-08-24T03:04:30.587Z,4.03
2022-08-24T03:06:59.306Z,3.67
2022-08-24T03:09:26.605Z,3.83
2022-08-24T03:11:56.421Z,3.55
2022-08-24T03:14:23.850Z,3.75
2022-08-24T03:16:51.373Z,3.80
2022-08-24T03:19:18.714Z,3.33
2022-08-24T03:21:46.051Z,3.80
2022-08-24T03:24:13.468Z,4.28
2022-08-24T03:26:44.304Z,3.60
2022-08-24T03:29:12.556Z,4.05
2022-08-24T03:31:39.953Z,4.47
2022-08-24T03:34:07.400Z,3.88
2022-08-24T03:36:34.787Z,3.67
2022-08-24T03:39:02.097Z,4.32
2022-08-24T03:41:29.446Z,4.22
2022-08-24T03:43:57.199Z,4.00
2022-08-24T03:46:27.416Z,4.13
2022-08-24T03:48:55.918Z,3.88
2022-08-24T03:51:24.568Z,4.22
2022-08-24T03:53:52.764Z,4.00
2022-08-24T03:56:20.241Z,3.97
2022-08-24T03:58:48.209Z,4.00
2022-08-24T04:01:17.290Z,4.43
2022-08-24T04:03:46.193Z,4.10
2022-08-24T04:06:14.316Z,4.32
2022-08-24T04:08:42.138Z,4.30
2022-08-24T04:11:18.143Z,4.07
2022-08-24T04:13:47.011Z,3.80
2022-08-24T04:16:16.161Z,4.15
2022-08-24T04:18:44.386Z,3.65
2022-08-24T04:21:41.230Z,3.63
2022-08-24T04:24:09.769Z,3.60
2022-08-24T04:26:45.152Z,3.72
2022-08-24T04:29:14.141Z,3.53
2022-08-24T04:31:42.973Z,4.32
2022-08-24T04:34:10.429Z,3.35
2022-08-24T04:36:38.004Z,3.97
2022-08-24T04:39:06.271Z,3.60
2022-08-24T04:41:33.820Z,3.95
2022-08-24T04:44:02.079Z,4.07
2022-08-24T04:46:30.332Z,3.90
2022-08-24T04:48:58.850Z,3.72
2022-08-24T04:51:26.492Z,4.50
2022-08-24T04:53:56.601Z,4.40
2022-08-24T04:56:25.283Z,4.47
2022-08-24T04:58:53.484Z,4.55
2022-08-24T05:01:22.822Z,4.18
2022-08-24T05:03:50.993Z,4.10
2022-08-24T05:06:20.220Z,4.10
2022-08-24T05:08:48.053Z,4.63
2022-08-24T05:11:17.831Z,4.30
2022-08-24T05:13:45.543Z,3.45
2022-08-24T05:16:15.450Z,3.72
2022-08-24T05:18:43.090Z,3.90
2022-08-24T05:21:14.717Z,3.58
2022-08-24T05:23:44.013Z,3.50
2022-08-24T05:26:17.493Z,3.88
2022-08-24T05:28:47.614Z,3.42
2022-08-24T05:31:19.414Z,3.88
2022-08-24T05:33:48.200Z,3.90
2022-08-24T05:36:17.611Z,4.55
2022-08-24T05:38:45.245Z,3.72
2022-08-24T05:41:12.522Z,3.88
2022-08-24T05:43:39.892Z,3.80
2022-08-24T05:46:07.486Z,4.00
2022-08-24T05:48:35.877Z,3.78
2022-08-24T05:51:03.350Z,4.00
2022-08-24T05:53:31.705Z,4.07
2022-08-24T05:55:59.096Z,4.10
2022-08-24T05:58:31.299Z,3.45
2022-08-24T06:01:00.128Z,3.30
2022-08-24T06:03:27.978Z,4.43
2022-08-24T06:05:55.980Z,3.75
2022-08-24T06:08:24.002Z,3.38
2022-08-24T06:10:51.285Z,2.95
2022-08-24T06:13:18.559Z,3.78
2022-08-24T06:16:10.901Z,3.53
2022-08-24T06:18:36.834Z,3.75
2022-08-24T06:21:14.910Z,3.20
2022-08-24T06:23:44.366Z,3.28
2022-08-24T06:26:31.200Z,3.40
2022-08-24T06:29:00.495Z,3.30
2022-08-24T06:31:28.249Z,3.65
2022-08-24T06:33:56.258Z,3.30
2022-08-24T06:36:23.571Z,3.92
2022-08-24T06:38:51.077Z,3.30
2022-08-24T06:41:20.447Z,3.03
2022-08-24T06:43:47.943Z,3.10
2022-08-24T06:46:15.706Z,3.20
2022-08-24T06:48:43.357Z,3.65
2022-08-24T06:51:14.837Z,3.00
2022-08-24T06:53:42.405Z,3.83
2022-08-24T06:56:10.201Z,3.50
2022-08-24T06:58:37.849Z,3.28
2022-08-24T07:01:09.878Z,3.80
2022-08-24T07:03:37.386Z,3.45
2022-08-24T07:06:05.264Z,3.28
2022-08-24T07:08:33.251Z,3.50
2022-08-24T07:11:00.633Z,3.28
2022-08-24T07:13:29.835Z,3.15
2022-08-24T07:15:57.208Z,2.80
2022-08-24T07:18:24.615Z,3.10
2022-08-24T07:20:54.256Z,2.90
2022-08-24T07:23:22.040Z,2.95
2022-08-24T07:26:09.322Z,3.00
2022-08-24T07:28:38.190Z,3.05
2022-08-24T07:31:06.184Z,3.00
2022-08-24T07:33:33.998Z,3.20
2022-08-24T07:36:01.455Z,3.60
2022-08-24T07:38:28.925Z,2.67
2022-08-24T07:41:20.341Z,2.60
2022-08-24T07:43:43.851Z,2.50
2022-08-24T07:46:11.218Z,2.60
2022-08-24T07:48:38.935Z,2.42
2022-08-24T07:51:12.938Z,2.95
2022-08-24T07:53:53.126Z,2.77
2022-08-24T07:56:21.421Z,2.38
2022-08-24T07:58:48.864Z,2.90
2022-08-24T08:01:22.538Z,2.70
2022-08-24T08:03:50.565Z,2.72
2022-08-24T08:06:19.213Z,2.55
2022-08-24T08:08:46.660Z,2.58
2022-08-24T08:11:14.024Z,2.70
2022-08-24T08:16:10.372Z,2.72
2022-08-24T08:18:37.928Z,2.33
2022-08-24T08:21:06.238Z,2.40
2022-08-24T08:23:52.091Z,2.67
2022-08-24T08:26:21.248Z,2.50
2022-08-24T08:28:48.744Z,2.63
2022-08-24T08:31:16.192Z,2.85
2022-08-24T08:33:43.720Z,2.47
2022-08-24T08:36:18.899Z,2.85
2022-08-24T08:38:46.191Z,2.45
2022-08-24T08:41:24.595Z,2.70
2022-08-24T08:44:01.025Z,2.80
2022-08-24T08:46:46.698Z,2.28
2022-08-24T08:49:13.999Z,2.40
2022-08-24T08:51:57.047Z,2.65
2022-08-24T08:54:27.431Z,2.78
2022-08-24T08:57:17.429Z,2.90
2022-08-24T08:59:54.220Z,2.45
2022-08-24T09:02:44.972Z,2.88
2022-08-24T09:05:12.295Z,2.75
2022-08-24T09:08:05.873Z,2.10
2022-08-24T09:10:36.228Z,2.20
2022-08-24T09:13:22.162Z,2.40
2022-08-24T09:15:55.923Z,2.55
2022-08-24T09:18:34.296Z,2.50
2022-08-24T09:21:19.924Z,2.53
2022-08-24T09:23:47.490Z,2.58
2022-08-24T09:26:23.310Z,2.65
2022-08-24T09:28:55.206Z,2.40
2022-08-24T09:31:41.630Z,2.53
2022-08-24T09:34:08.933Z,3.38
2022-08-24T09:36:54.793Z,2.10
2022-08-24T09:39:25.115Z,2.35
2022-08-24T09:41:55.234Z,2.70
2022-08-24T09:44:41.383Z,2.58
2022-08-24T09:47:21.405Z,2.88
2022-08-24T09:49:48.701Z,2.63
2022-08-24T09:52:22.108Z,2.55
2022-08-24T09:55:01.925Z,2.90
2022-08-24T09:57:44.299Z,2.60
2022-08-24T10:00:25.922Z,2.40
2022-08-24T10:02:53.294Z,2.67
2022-08-24T10:05:37.126Z,2.05
2022-08-24T10:08:15.501Z,2.00
2022-08-24T10:10:49.409Z,2.25
2022-08-24T10:13:22.872Z,2.10
2022-08-24T10:15:50.295Z,2.17
2022-08-24T10:18:23.955Z,2.38
2022-08-24T10:21:08.800Z,2.40
2022-08-24T10:23:49.045Z,2.45
2022-08-24T10:26:22.694Z,2.30
2022-08-24T10:29:08.611Z,2.20
2022-08-24T10:31:48.715Z,1.88
2022-08-24T10:34:40.742Z,2.25
2022-08-24T10:37:34.693Z,2.38
2022-08-24T10:40:22.993Z,2.30
2022-08-24T10:43:11.074Z,2.05
2022-08-24T10:46:01.953Z,2.60
2022-08-24T10:48:33.396Z,2.40
2022-08-24T10:51:21.584Z,2.20
2022-08-24T10:53:50.939Z,2.22
2022-08-24T10:56:20.243Z,2.00
2022-08-24T10:58:59.593Z,2.08
2022-08-24T11:01:29.656Z,2.60
2022-08-24T11:03:57.211Z,1.90
2022-08-24T11:06:26.285Z,2.13
2022-08-24T11:08:55.375Z,1.95
2022-08-24T11:11:27.546Z,2.15
2022-08-24T11:13:59.319Z,2.28
2022-08-24T11:16:35.483Z,2.00
2022-08-24T11:19:04.895Z,2.05
2022-08-24T11:21:34.756Z,2.35
2022-08-24T11:24:05.834Z,2.20
2022-08-24T11:26:45.399Z,2.53
2022-08-24T11:29:12.755Z,2.70
2022-08-24T11:31:41.726Z,2.55
2022-08-24T11:34:10.917Z,2.30
2022-08-24T11:36:39.674Z,2.45
2022-08-24T11:39:23.030Z,2.50
2022-08-24T11:41:54.527Z,2.30
2022-08-24T11:44:25.120Z,2.38
2022-08-24T11:47:03.775Z,2.28
2022-08-24T11:49:48.315Z,2.45
2022-08-24T11:52:20.257Z,2.17
2022-08-24T11:55:01.716Z,2.20
2022-08-24T11:57:35.823Z,2.20
2022-08-24T12:00:11.032Z,2.53
2022-08-24T12:03:04.713Z,2.58
2022-08-24T12:05:40.349Z,2.20
2022-08-24T12:08:19.744Z,2.15
2022-08-24T12:10:47.026Z,2.20
2022-08-24T12:13:23.592Z,2.30
2022-08-24T12:15:55.569Z,2.33
2022-08-24T12:18:29.732Z,2.63
2022-08-24T12:20:57.431Z,2.22
2022-08-24T12:23:40.640Z,2.30
2022-08-24T12:26:10.540Z,2.70
2022-08-24T12:28:41.031Z,2.30
2022-08-24T12:31:43.966Z,2.35
2022-08-24T12:34:23.896Z,2.67
2022-08-24T12:37:00.446Z,2.00
2022-08-24T12:39:29.832Z,2.25
2022-08-24T12:42:04.599Z,2.25
2022-08-24T12:44:36.275Z,2.30
2022-08-24T12:47:03.712Z,2.72
2022-08-24T12:49:47.008Z,2.30
2022-08-24T12:52:17.330Z,2.20
2022-08-24T12:54:44.608Z,2.28
2022-08-24T12:57:27.331Z,2.28
2022-08-24T12:59:57.074Z,2.40
2022-08-24T13:02:24.424Z,2.28
2022-08-24T13:04:52.884Z,2.38
2022-08-24T13:07:20.256Z,2.22
2022-08-24T13:09:47.617Z,1.90
2022-08-24T13:12:33.586Z,2.47
2022-08-24T13:15:20.296Z,2.30
2022-08-24T13:17:48.336Z,2.50
2022-08-24T13:20:18.869Z,2.33
2022-08-24T13:22:48.534Z,3.03
2022-08-24T13:25:39.238Z,2.70
2022-08-24T13:28:09.435Z,2.75
2022-08-24T13:30:40.092Z,2.50
2022-08-24T13:33:10.640Z,2.38
2022-08-24T13:35:40.724Z,2.63
2022-08-24T13:38:26.624Z,2.50
2022-08-24T13:40:58.082Z,2.63
2022-08-24T13:43:52.728Z,3.05
2022-08-24T13:46:43.733Z,2.55
2022-08-24T13:49:35.005Z,2.63
2022-08-24T13:52:13.781Z,2.80
2022-08-24T13:55:00.007Z,3.03
2022-08-24T13:58:06.202Z,2.78
2022-08-24T14:00:40.388Z,2.90
2022-08-24T14:03:07.700Z,3.17
2022-08-24T14:05:45.130Z,3.08
2022-08-24T14:08:34.211Z,2.90
2022-08-24T14:11:09.027Z,2.83
2022-08-24T14:13:37.001Z,3.03
2022-08-24T14:16:41.044Z,2.92
2022-08-24T14:19:34.921Z,3.00
2022-08-24T14:22:22.476Z,2.97
2022-08-24T14:24:58.608Z,3.13
2022-08-24T14:27:38.801Z,3.45
2022-08-24T14:30:18.427Z,3.33
2022-08-24T14:32:48.408Z,3.03
2022-08-24T14:35:16.158Z,3.40
2022-08-24T14:38:02.469Z,3.00
2022-08-24T14:40:38.353Z,3.38
2022-08-24T14:43:08.641Z,3.60
2022-08-24T14:46:15.436Z,2.78
2022-08-24T14:48:55.122Z,3.25
2022-08-24T14:51:28.282Z,2.90
2022-08-24T14:53:55.878Z,2.83
2022-08-24T14:56:41.902Z,2.63
2022-08-24T14:59:28.346Z,2.90
2022-08-24T15:02:16.362Z,2.50
2022-08-24T15:04:46.860Z,2.42
2022-08-24T15:07:23.242Z,3.10
2022-08-24T15:09:51.850Z,2.40
2022-08-24T15:12:33.038Z,2.35
2022-08-24T15:15:03.515Z,2.28
2022-08-24T15:17:41.009Z,2.53
2022-08-24T15:20:16.661Z,2.70
2022-08-24T15:22:52.586Z,2.50
2022-08-24T15:25:20.909Z,2.70
2022-08-24T15:28:06.461Z,2.55
2022-08-24T15:30:42.592Z,2.95
2022-08-24T15:33:18.453Z,2.05
2022-08-24T15:35:55.529Z,1.95
2022-08-24T15:38:28.482Z,2.08
2022-08-24T15:41:13.426Z,2.25
2022-08-24T15:43:56.295Z,2.20
2022-08-24T15:46:32.190Z,2.17
2022-08-24T15:49:15.767Z,2.10
2022-08-24T15:51:44.564Z,1.83
2022-08-24T15:54:31.769Z,2.15
2022-08-24T15:57:06.917Z,2.10
2022-08-24T15:59:42.144Z,1.90
2022-08-24T16:02:32.977Z,2.25
2022-08-24T16:05:02.690Z,1.80
2022-08-24T16:07:36.629Z,2.20
2022-08-24T16:10:30.417Z,2.05
2022-08-24T16:16:31.712Z,1.63
2022-08-24T16:19:00.055Z,2.10
2022-08-24T16:21:35.384Z,1.83
2022-08-24T16:24:11.669Z,2.25
2022-08-24T16:26:45.180Z,1.90
2022-08-24T16:29:31.282Z,2.67
2022-08-24T16:32:09.393Z,2.17
2022-08-24T16:34:38.259Z,2.30
2022-08-24T16:37:07.001Z,2.05
2022-08-24T16:39:36.886Z,2.17
2022-08-24T16:42:13.589Z,2.20
2022-08-24T16:44:44.940Z,1.67
2022-08-24T16:47:16.377Z,2.05
2022-08-24T16:49:49.069Z,1.83
2022-08-24T16:52:17.216Z,1.80
2022-08-24T16:54:45.047Z,1.73
2022-08-24T16:57:17.565Z,2.00
2022-08-24T16:59:45.954Z,2.03
2022-08-24T17:02:13.827Z,1.90
2022-08-24T17:04:42.764Z,1.95
2022-08-24T17:07:12.819Z,1.67
2022-08-24T17:09:41.207Z,1.80
2022-08-24T17:12:09.385Z,1.90
2022-08-24T17:14:40.609Z,1.80
2022-08-24T17:17:09.727Z,1.90
2022-08-24T17:19:37.710Z,1.85
2022-08-24T17:22:05.741Z,2.00
2022-08-24T17:24:33.671Z,1.67
2022-08-24T17:27:01.415Z,1.95
2022-08-24T17:29:29.757Z,1.67
2022-08-24T17:31:59.635Z,1.80
2022-08-24T17:34:30.249Z,1.55
2022-08-24T17:36:58.100Z,1.67
2022-08-24T17:39:26.039Z,1.90
2022-08-24T17:41:57.210Z,1.65
2022-08-24T17:44:26.517Z,1.70
2022-08-24T17:46:55.603Z,1.40
2022-08-24T17:49:23.103Z,1.60
2022-08-24T17:51:50.938Z,1.50
2022-08-24T17:54:18.805Z,1.48
2022-08-24T17:56:48.909Z,1.50
2022-08-24T17:59:26.118Z,1.90
2022-08-24T18:01:54.835Z,2.10
2022-08-24T18:04:25.810Z,1.50
2022-08-24T18:06:53.297Z,1.88
2022-08-24T18:09:30.344Z,1.45
2022-08-24T18:12:01.522Z,1.73
2022-08-24T18:14:29.943Z,2.50
2022-08-24T18:16:58.920Z,1.60
2022-08-24T18:19:26.657Z,2.08
2022-08-24T18:21:54.132Z,1.65
2022-08-24T18:24:21.715Z,1.63
2022-08-24T18:26:49.846Z,1.70
2022-08-24T18:29:19.328Z,1.75
2022-08-24T18:31:48.660Z,1.48
2022-08-24T18:34:21.279Z,1.58
2022-08-24T18:36:49.785Z,1.30
2022-08-24T18:39:17.377Z,1.50
2022-08-24T18:41:49.389Z,1.40
2022-08-24T18:44:19.467Z,1.90
2022-08-24T18:46:47.953Z,1.60
2022-08-24T18:49:16.142Z,1.80
2022-08-24T18:51:43.998Z,1.40
2022-08-24T18:54:12.879Z,1.23
2022-08-24T18:56:40.456Z,1.60
2022-08-24T18:59:08.074Z,1.90
2022-08-24T19:01:55.510Z,1.70
2022-08-24T19:04:30.257Z,1.63
2022-08-24T19:07:00.751Z,1.77
2022-08-24T19:09:32.157Z,1.85
2022-08-24T19:12:01.201Z,1.98
2022-08-24T19:14:28.782Z,1.80
2022-08-24T19:16:56.141Z,1.95
2022-08-24T19:19:23.719Z,1.70
2022-08-24T19:21:51.286Z,1.83
2022-08-24T19:24:20.240Z,2.05
2022-08-24T19:26:47.617Z,1.85
2022-08-24T19:29:24.469Z,1.88
2022-08-24T19:32:03.880Z,1.98
2022-08-24T19:34:33.717Z,2.00
2022-08-24T19:37:02.356Z,2.20
2022-08-24T19:39:31.694Z,2.00
2022-08-24T19:41:59.756Z,2.60
2022-08-24T19:44:52.515Z,2.30
2022-08-24T19:47:19.938Z,2.20
2022-08-24T19:49:47.334Z,2.22
2022-08-24T19:52:15.564Z,2.28
2022-08-24T19:54:46.953Z,2.25
2022-08-24T19:57:33.099Z,2.40
2022-08-24T20:00:01.943Z,2.40
2022-08-24T20:02:29.911Z,2.40
2022-08-24T20:04:57.342Z,3.08
2022-08-24T20:07:24.685Z,2.47
2022-08-24T20:09:52.290Z,2.67
2022-08-24T20:12:19.735Z,2.60
2022-08-24T20:14:47.124Z,2.63
2022-08-24T20:17:14.852Z,2.50
2022-08-24T20:19:42.276Z,2.17
2022-08-24T20:22:13.270Z,2.45
2022-08-24T20:24:42.696Z,2.50
2022-08-24T20:27:13.150Z,2.38
2022-08-24T20:29:40.514Z,2.50
2022-08-24T20:32:32.436Z,2.80
2022-08-24T20:35:01.217Z,2.92
2022-08-24T20:37:29.412Z,2.22
2022-08-24T20:39:57.565Z,2.35
2022-08-24T20:42:27.056Z,2.15
2022-08-24T20:44:55.215Z,2.35
2022-08-24T20:47:23.163Z,2.35
2022-08-24T20:49:51.301Z,2.60
2022-08-24T20:52:18.958Z,2.58
2022-08-24T20:54:46.363Z,2.45
2022-08-24T20:57:17.621Z,2.28
2022-08-24T20:59:45.562Z,2.38
2022-08-24T21:02:13.100Z,2.95
2022-08-24T21:04:52.403Z,2.20
2022-08-24T21:07:31.100Z,2.50
2022-08-24T21:09:59.555Z,3.00
2022-08-24T21:12:32.060Z,2.80
2022-08-24T21:15:00.019Z,2.40
2022-08-24T21:17:27.645Z,2.85
2022-08-24T21:19:55.242Z,2.25
2022-08-24T21:22:22.673Z,2.35
2022-08-24T21:24:50.296Z,2.05
2022-08-24T21:27:18.486Z,2.80
2022-08-24T21:29:45.895Z,2.10
2022-08-24T21:32:31.827Z,2.55
2022-08-24T21:34:59.260Z,2.03
2022-08-24T21:37:27.113Z,2.08
2022-08-24T21:39:55.901Z,2.50
2022-08-24T21:42:23.296Z,2.25
2022-08-24T21:44:50.777Z,2.60
2022-08-24T21:47:18.159Z,2.78
2022-08-24T21:49:45.594Z,2.50
2022-08-24T21:52:13.039Z,2.75
2022-08-24T21:54:40.428Z,2.35
2022-08-24T21:57:08.143Z,3.10
2022-08-24T21:59:35.713Z,2.72
2022-08-24T22:02:04.899Z,3.13
2022-08-24T22:04:33.103Z,2.65
2022-08-24T22:07:01.787Z,2.85
2022-08-24T22:09:29.457Z,2.80
2022-08-24T22:11:59.200Z,2.88
2022-08-24T22:14:27.287Z,2.83
2022-08-24T22:16:55.282Z,2.72
2022-08-24T22:19:22.611Z,2.80
2022-08-24T22:21:50.182Z,3.03
2022-08-24T22:24:17.810Z,2.75
2022-08-24T22:26:45.707Z,3.13
2022-08-24T22:29:13.347Z,2.90
2022-08-24T22:31:42.589Z,3.22
2022-08-24T22:34:11.302Z,2.90
2022-08-24T22:36:40.498Z,2.80
2022-08-24T22:39:10.278Z,3.38
2022-08-24T22:41:38.075Z,3.92
2022-08-24T22:44:19.454Z,2.83
2022-08-24T22:46:48.102Z,3.13
2022-08-24T22:49:15.502Z,2.95
2022-08-24T22:51:50.813Z,3.65
2022-08-24T22:54:28.507Z,2.85
2022-08-24T22:57:00.053Z,3.42
2022-08-24T22:59:37.644Z,3.38
2022-08-24T23:02:16.001Z,3.15
2022-08-24T23:04:46.494Z,3.40
2022-08-24T23:07:14.718Z,3.53
2022-08-24T23:09:45.007Z,3.42
2022-08-24T23:12:14.456Z,4.00
2022-08-24T23:14:41.907Z,4.03
2022-08-24T23:17:09.430Z,3.58
2022-08-24T23:19:55.563Z,3.65
2022-08-24T23:22:23.295Z,3.50
2022-08-24T23:24:50.679Z,3.47
2022-08-24T23:27:18.803Z,3.72
2022-08-24T23:29:46.780Z,4.05
2022-08-24T23:32:17.858Z,4.28
2022-08-24T23:34:46.353Z,4.20
2022-08-24T23:37:14.164Z,3.83
2022-08-24T23:39:41.676Z,4.38
2022-08-24T23:42:09.083Z,4.10
2022-08-24T23:44:36.502Z,4.25
2022-08-24T23:47:04.215Z,4.00
2022-08-24T23:49:31.860Z,4.22
2022-08-24T23:51:59.917Z,4.80
2022-08-24T23:54:27.877Z,4.35
2022-08-24T23:56:55.818Z,4.35
2022-08-24T23:59:25.245Z,4.72
